createdAt,value
2023-05-12T00:01:48.758Z,13.40
2023-05-12T00:03:53.647Z,13.40
2023-05-12T00:05:56.766Z,13.40
2023-05-12T00:07:59.549Z,13.40
2023-05-12T00:10:02.348Z,13.40
2023-05-12T00:12:05.783Z,13.40
2023-05-12T00:14:08.609Z,13.40
2023-05-12T00:16:13.399Z,13.40
2023-05-12T00:18:16.205Z,13.50
2023-05-12T00:20:19.465Z,13.40
2023-05-12T00:22:22.454Z,13.40
2023-05-12T00:24:25.278Z,13.40
2023-05-12T00:26:28.041Z,13.40
2023-05-12T00:28:30.832Z,13.40
2023-05-12T00:30:33.599Z,13.40
2023-05-12T00:32:37.834Z,13.40
2023-05-12T00:34:40.692Z,13.40
2023-05-12T00:36:43.516Z,13.50
2023-05-12T00:38:46.299Z,13.40
2023-05-12T00:40:49.060Z,13.40
2023-05-12T00:42:51.832Z,13.40
2023-05-12T00:44:54.604Z,13.40
2023-05-12T00:46:57.392Z,13.40
2023-05-12T00:49:01.484Z,13.30
2023-05-12T00:51:04.475Z,13.40
2023-05-12T00:53:07.255Z,13.30
2023-05-12T00:55:10.595Z,13.40
2023-05-12T00:57:13.378Z,13.30
2023-05-12T00:59:16.135Z,13.40
2023-05-12T01:01:18.921Z,13.40
2023-05-12T01:03:21.858Z,13.40
2023-05-12T01:05:26.339Z,13.30
2023-05-12T01:07:29.090Z,13.30
2023-05-12T01:09:31.921Z,13.30
2023-05-12T01:11:34.691Z,13.30
2023-05-12T01:13:39.423Z,13.30
2023-05-12T01:15:46.040Z,13.30
2023-05-12T01:17:51.287Z,13.30
2023-05-12T01:19:55.383Z,13.30
2023-05-12T01:21:59.498Z,13.30
2023-05-12T01:24:04.152Z,13.30
2023-05-12T01:26:08.334Z,13.30
2023-05-12T01:28:11.129Z,13.30
2023-05-12T01:30:16.711Z,13.20
2023-05-12T01:32:19.541Z,13.20
2023-05-12T01:34:22.320Z,13.20
2023-05-12T01:36:25.089Z,13.20
2023-05-12T01:38:27.897Z,13.20
2023-05-12T01:40:30.761Z,13.20
2023-05-12T01:42:34.885Z,13.20
2023-05-12T01:44:37.700Z,13.20
2023-05-12T01:46:40.527Z,13.20
2023-05-12T01:48:44.010Z,13.20
2023-05-12T01:50:46.778Z,13.20
2023-05-12T01:52:49.551Z,13.20
2023-05-12T01:54:52.342Z,13.20
2023-05-12T01:56:55.134Z,13.30
2023-05-12T01:58:59.261Z,13.30
2023-05-12T02:01:02.072Z,13.30
2023-05-12T02:03:05.014Z,13.20
2023-05-12T02:05:08.696Z,13.30
2023-05-12T02:07:11.472Z,13.20
2023-05-12T02:09:14.284Z,13.20
2023-05-12T02:11:17.202Z,13.20
2023-05-12T02:13:19.957Z,13.20
2023-05-12T02:15:24.574Z,13.20
2023-05-12T02:17:28.756Z,13.20
2023-05-12T02:19:31.572Z,13.20
2023-05-12T02:21:34.332Z,13.20
2023-05-12T02:23:37.103Z,13.10
2023-05-12T02:25:39.855Z,13.10
2023-05-12T02:27:43.597Z,13.10
2023-05-12T02:29:46.759Z,13.10
2023-05-12T02:31:50.884Z,13.10
2023-05-12T02:33:53.659Z,13.20
2023-05-12T02:35:56.407Z,13.20
2023-05-12T02:37:59.159Z,13.20
2023-05-12T02:40:01.927Z,13.20
2023-05-12T02:42:04.966Z,13.10
2023-05-12T02:44:07.740Z,13.10
2023-05-12T02:46:10.529Z,13.10
2023-05-12T02:48:14.695Z,13.10
2023-05-12T02:50:17.746Z,13.00
2023-05-12T02:52:22.126Z,13.10
2023-05-12T02:54:24.875Z,13.00
2023-05-12T02:56:27.669Z,13.00
2023-05-12T02:58:30.443Z,13.00
2023-05-12T03:00:33.163Z,13.00
2023-05-12T03:02:36.530Z,13.10
2023-05-12T03:04:40.761Z,13.00
2023-05-12T03:06:43.524Z,13.00
2023-05-12T03:08:46.251Z,12.90
2023-05-12T03:10:49.002Z,13.00
2023-05-12T03:12:51.773Z,13.00
2023-05-12T03:14:54.619Z,12.90
2023-05-12T03:16:57.412Z,12.90
2023-05-12T03:19:00.276Z,12.90
2023-05-12T03:21:05.655Z,12.90
2023-05-12T03:23:08.803Z,12.90
2023-05-12T03:25:11.606Z,12.90
2023-05-12T03:27:14.366Z,12.90
2023-05-12T03:29:17.141Z,12.90
2023-05-12T03:31:19.975Z,12.90
2023-05-12T03:33:22.764Z,12.90
2023-05-12T03:35:25.824Z,12.90
2023-05-12T03:37:29.927Z,12.80
2023-05-12T03:39:32.713Z,12.80
2023-05-12T03:41:35.507Z,12.90
2023-05-12T03:43:38.320Z,12.80
2023-05-12T03:45:41.398Z,12.80
2023-05-12T03:47:44.341Z,12.90
2023-05-12T03:49:47.238Z,12.90
2023-05-12T03:51:49.997Z,12.80
2023-05-12T03:53:54.132Z,12.80
2023-05-12T03:55:57.162Z,12.90
2023-05-12T03:57:59.975Z,12.90
2023-05-12T04:00:03.674Z,12.90
2023-05-12T04:02:11.727Z,12.90
2023-05-12T04:04:14.684Z,12.80
2023-05-12T04:06:17.571Z,12.90
2023-05-12T04:08:20.373Z,12.90
2023-05-12T04:10:24.832Z,12.90
2023-05-12T04:12:27.644Z,12.90
2023-05-12T04:14:41.607Z,12.90
2023-05-12T04:16:45.507Z,12.90
2023-05-12T04:18:49.300Z,12.90
2023-05-12T04:20:52.177Z,12.90
2023-05-12T04:22:54.947Z,12.80
2023-05-12T04:24:57.722Z,12.80
2023-05-12T04:27:01.898Z,12.80
2023-05-12T04:29:04.664Z,12.80
2023-05-12T04:31:07.535Z,12.80
2023-05-12T04:33:10.459Z,12.80
2023-05-12T04:35:13.611Z,12.70
2023-05-12T04:37:16.369Z,12.70
2023-05-12T04:39:19.177Z,12.70
2023-05-12T04:41:22.422Z,12.80
2023-05-12T04:45:32.211Z,12.90
2023-05-12T04:47:35.018Z,12.90
2023-05-12T04:49:37.830Z,12.90
2023-05-12T04:51:42.337Z,12.90
2023-05-12T04:53:45.833Z,12.80
2023-05-12T04:55:50.013Z,12.90
2023-05-12T04:57:52.790Z,12.90
2023-05-12T04:59:59.194Z,13.00
2023-05-12T05:02:01.989Z,13.00
2023-05-12T05:04:05.193Z,13.00
2023-05-12T05:06:08.295Z,13.00
2023-05-12T05:08:11.179Z,13.10
2023-05-12T05:10:14.077Z,13.20
2023-05-12T05:12:17.031Z,13.20
2023-05-12T05:14:19.907Z,13.20
2023-05-12T05:16:24.489Z,13.30
2023-05-12T05:18:27.560Z,13.30
2023-05-12T05:20:32.677Z,13.30
2023-05-12T05:22:35.732Z,13.40
2023-05-12T05:24:38.627Z,13.50
2023-05-12T05:26:42.044Z,13.50
2023-05-12T05:28:44.798Z,13.60
2023-05-12T05:30:47.596Z,13.60
2023-05-12T05:32:51.717Z,13.70
2023-05-12T05:34:54.500Z,13.70
2023-05-12T05:36:57.266Z,13.80
2023-05-12T05:39:00.019Z,13.80
2023-05-12T05:41:02.800Z,13.90
2023-05-12T05:43:06.481Z,13.90
2023-05-12T05:45:10.354Z,13.90
2023-05-12T05:47:13.224Z,13.90
2023-05-12T05:49:17.462Z,14.00
2023-05-12T05:51:20.260Z,14.00
2023-05-12T05:53:23.059Z,14.00
2023-05-12T05:55:25.955Z,14.10
2023-05-12T05:57:29.916Z,14.20
2023-05-12T05:59:33.048Z,14.20
2023-05-12T06:01:35.908Z,14.20
2023-05-12T06:03:38.890Z,14.30
2023-05-12T06:05:43.476Z,14.30
2023-05-12T06:07:46.278Z,14.30
2023-05-12T06:09:49.076Z,14.40
2023-05-12T06:11:51.839Z,14.40
2023-05-12T06:13:54.627Z,14.60
2023-05-12T06:15:57.388Z,14.60
2023-05-12T06:18:00.279Z,14.70
2023-05-12T06:20:03.188Z,14.70
2023-05-12T06:22:07.377Z,14.70
2023-05-12T06:24:10.175Z,14.80
2023-05-12T06:26:13.199Z,14.90
2023-05-12T06:28:16.035Z,14.90
2023-05-12T06:30:19.092Z,15.00
2023-05-12T06:32:22.024Z,15.00
2023-05-12T06:34:25.138Z,15.00
2023-05-12T06:36:28.834Z,15.00
2023-05-12T06:38:32.958Z,15.10
2023-05-12T06:40:35.726Z,15.20
2023-05-12T06:42:38.516Z,15.30
2023-05-12T06:44:42.442Z,15.40
2023-05-12T06:46:45.518Z,15.30
2023-05-12T06:48:48.405Z,15.40
2023-05-12T06:50:51.163Z,15.40
2023-05-12T06:52:53.919Z,15.40
2023-05-12T06:54:58.048Z,15.50
2023-05-12T06:57:00.843Z,15.50
2023-05-12T06:59:04.262Z,15.60
2023-05-12T07:01:07.119Z,15.60
2023-05-12T07:03:10.255Z,15.60
2023-05-12T07:05:13.456Z,15.60
2023-05-12T07:07:16.294Z,15.70
2023-05-12T07:09:19.776Z,15.70
2023-05-12T07:11:23.891Z,15.70
2023-05-12T07:13:26.678Z,15.70
2023-05-12T07:15:31.272Z,15.80
2023-05-12T07:17:35.982Z,15.90
2023-05-12T07:19:40.162Z,15.90
2023-05-12T07:21:42.942Z,16.00
2023-05-12T07:23:45.740Z,16.10
2023-05-12T07:25:48.518Z,16.20
2023-05-12T07:27:52.901Z,16.20
2023-05-12T07:29:55.777Z,16.20
2023-05-12T07:31:58.663Z,16.30
2023-05-12T07:34:01.481Z,16.40
2023-05-12T07:36:04.814Z,16.50
2023-05-12T07:38:09.474Z,16.60
2023-05-12T07:40:12.729Z,16.50
2023-05-12T07:42:15.754Z,16.60
2023-05-12T07:44:19.866Z,16.60
2023-05-12T07:46:22.736Z,16.60
2023-05-12T07:48:25.579Z,16.80
2023-05-12T07:50:28.389Z,16.70
2023-05-12T07:52:31.178Z,16.80
2023-05-12T07:54:33.934Z,16.90
2023-05-12T07:56:36.735Z,17.00
2023-05-12T07:58:39.514Z,17.10
2023-05-12T08:00:44.760Z,17.10
2023-05-12T08:02:47.857Z,17.30
2023-05-12T08:04:51.755Z,17.30
2023-05-12T08:06:54.974Z,17.40
2023-05-12T08:08:58.378Z,17.50
2023-05-12T08:11:01.235Z,17.60
2023-05-12T08:13:04.019Z,17.80
2023-05-12T08:15:07.545Z,17.70
2023-05-12T08:17:11.779Z,17.80
2023-05-12T08:19:14.832Z,17.90
2023-05-12T08:21:17.663Z,18.10
2023-05-12T08:23:20.417Z,18.30
2023-05-12T08:25:23.641Z,18.50
2023-05-12T08:27:26.510Z,18.70
2023-05-12T08:29:29.307Z,19.10
2023-05-12T08:31:32.112Z,18.70
2023-05-12T08:33:37.283Z,19.00
2023-05-12T08:35:40.187Z,18.90
2023-05-12T08:37:43.033Z,19.00
2023-05-12T08:39:45.827Z,18.90
2023-05-12T08:41:51.508Z,19.20
2023-05-12T08:43:54.316Z,19.30
2023-05-12T08:45:58.379Z,19.60
2023-05-12T08:48:01.434Z,19.80
2023-05-12T08:50:06.949Z,19.90
2023-05-12T08:52:09.917Z,20.00
2023-05-12T08:54:13.461Z,20.00
2023-05-12T08:58:30.508Z,20.50
2023-05-12T09:00:40.586Z,20.20
2023-05-12T09:02:52.962Z,20.30
2023-05-12T09:04:57.139Z,20.40
2023-05-12T09:07:01.332Z,20.40
2023-05-12T09:09:04.269Z,20.60
2023-05-12T09:11:07.063Z,20.80
2023-05-12T09:13:14.344Z,20.90
2023-05-12T09:15:19.883Z,20.90
2023-05-12T09:17:22.814Z,21.20
2023-05-12T09:19:25.601Z,21.40
2023-05-12T09:21:28.718Z,21.80
2023-05-12T09:23:32.874Z,22.00
2023-05-12T09:25:35.665Z,22.30
2023-05-12T09:27:38.435Z,22.20
2023-05-12T09:29:58.556Z,22.20
2023-05-12T09:32:03.185Z,22.30
2023-05-12T09:34:08.425Z,22.00
2023-05-12T09:36:11.209Z,22.40
2023-05-12T09:38:14.874Z,22.40
2023-05-12T09:40:19.442Z,22.50
2023-05-12T09:42:22.299Z,22.60
2023-05-12T09:44:25.539Z,23.20
2023-05-12T09:46:29.456Z,23.00
2023-05-12T09:48:32.395Z,23.70
2023-05-12T09:50:46.607Z,23.50
2023-05-12T09:52:51.346Z,23.30
2023-05-12T09:54:54.269Z,23.90
2023-05-12T09:56:59.349Z,24.30
2023-05-12T09:59:02.160Z,24.10
2023-05-12T10:03:13.027Z,24.20
2023-05-12T10:05:17.351Z,24.20
2023-05-12T10:07:22.442Z,24.50
2023-05-12T10:09:29.664Z,25.10
2023-05-12T10:11:32.655Z,24.50
2023-05-12T10:13:36.798Z,24.90
2023-05-12T10:15:39.574Z,24.70
2023-05-12T10:17:42.620Z,24.70
2023-05-12T10:19:45.607Z,24.70
2023-05-12T10:21:48.709Z,25.20
2023-05-12T10:23:51.523Z,25.00
2023-05-12T10:25:54.456Z,24.70
2023-05-12T10:27:57.218Z,25.30
2023-05-12T10:30:01.944Z,24.70
2023-05-12T10:32:06.385Z,24.90
2023-05-12T10:34:09.125Z,25.20
2023-05-12T10:36:19.263Z,25.30
2023-05-12T10:38:22.249Z,25.60
2023-05-12T10:40:25.549Z,24.70
2023-05-12T10:42:28.592Z,25.40
2023-05-12T10:44:31.415Z,25.60
2023-05-12T10:46:35.891Z,25.90
2023-05-12T10:48:39.183Z,26.20
2023-05-12T10:50:54.359Z,25.20
2023-05-12T10:52:57.510Z,25.50
2023-05-12T10:55:01.488Z,25.20
2023-05-12T10:57:04.645Z,24.70
2023-05-12T10:59:09.515Z,24.20
2023-05-12T11:01:14.667Z,24.60
2023-05-12T11:03:25.256Z,24.20
2023-05-12T11:05:34.790Z,25.30
2023-05-12T11:07:37.998Z,25.70
2023-05-12T11:09:52.652Z,26.00
2023-05-12T11:12:00.639Z,25.50
2023-05-12T11:14:03.489Z,26.10
2023-05-12T11:16:06.982Z,26.00
2023-05-12T11:18:10.049Z,26.10
2023-05-12T11:20:23.003Z,25.80
2023-05-12T11:22:25.941Z,25.70
2023-05-12T11:24:28.743Z,25.50
2023-05-12T11:26:31.795Z,26.00
2023-05-12T11:28:40.836Z,26.20
2023-05-12T11:30:52.481Z,26.60
2023-05-12T11:33:03.488Z,26.60
2023-05-12T11:35:14.647Z,26.80
2023-05-12T11:37:20.818Z,27.10
2023-05-12T11:39:25.002Z,26.90
2023-05-12T11:41:27.905Z,27.20
2023-05-12T11:43:30.701Z,26.90
2023-05-12T11:45:34.366Z,26.80
2023-05-12T11:47:37.239Z,26.70
2023-05-12T11:49:46.925Z,26.90
2023-05-12T11:51:52.413Z,26.70
2023-05-12T11:53:55.607Z,27.00
2023-05-12T11:55:59.148Z,26.90
2023-05-12T11:58:03.302Z,26.00
2023-05-12T12:00:08.081Z,26.90
2023-05-12T12:02:20.825Z,27.00
2023-05-12T12:04:34.419Z,26.40
2023-05-12T12:06:44.258Z,26.20
2023-05-12T12:08:55.145Z,26.20
2023-05-12T12:10:57.962Z,27.00
2023-05-12T12:13:01.379Z,26.80
2023-05-12T12:15:05.176Z,26.70
2023-05-12T12:17:08.024Z,27.40
2023-05-12T12:19:10.896Z,26.90
2023-05-12T12:21:13.741Z,27.40
2023-05-12T12:23:16.612Z,27.70
2023-05-12T12:25:21.109Z,27.90
2023-05-12T12:27:24.356Z,27.40
2023-05-12T12:29:28.377Z,26.70
2023-05-12T12:31:31.551Z,26.00
2023-05-12T12:33:34.362Z,25.50
2023-05-12T12:35:37.143Z,26.10
2023-05-12T12:37:40.335Z,25.20
2023-05-12T12:39:43.108Z,24.90
2023-05-12T12:41:48.121Z,24.80
2023-05-12T12:43:51.126Z,24.40
2023-05-12T12:45:54.562Z,24.00
2023-05-12T12:47:57.451Z,23.70
2023-05-12T12:50:00.713Z,22.90
2023-05-12T12:52:03.495Z,23.10
2023-05-12T12:54:06.402Z,23.00
2023-05-12T12:56:09.241Z,22.90
2023-05-12T12:58:13.379Z,22.80
2023-05-12T13:00:17.361Z,22.70
2023-05-12T13:02:20.218Z,22.60
2023-05-12T13:04:23.350Z,22.70
2023-05-12T13:06:26.126Z,23.70
2023-05-12T13:08:29.495Z,24.60
2023-05-12T13:10:32.304Z,25.10
2023-05-12T13:12:35.068Z,24.90
2023-05-12T13:14:39.421Z,24.60
2023-05-12T13:16:42.267Z,24.30
2023-05-12T13:18:45.849Z,24.20
2023-05-12T13:20:49.198Z,24.00
2023-05-12T13:22:52.021Z,23.90
2023-05-12T13:24:54.841Z,23.60
2023-05-12T13:26:58.227Z,23.50
2023-05-12T13:29:01.018Z,23.60
2023-05-12T13:31:06.081Z,23.80
2023-05-12T13:33:09.005Z,23.70
2023-05-12T13:35:11.820Z,24.10
2023-05-12T13:37:14.807Z,24.10
2023-05-12T13:39:19.046Z,24.50
2023-05-12T13:41:22.484Z,24.10
2023-05-12T13:43:25.300Z,23.60
2023-05-12T13:45:28.286Z,23.90
2023-05-12T13:47:32.643Z,24.60
2023-05-12T13:49:35.435Z,24.90
2023-05-12T13:51:38.307Z,25.30
2023-05-12T13:53:45.792Z,25.30
2023-05-12T13:55:49.260Z,25.50
2023-05-12T13:57:52.439Z,25.70
2023-05-12T13:59:57.782Z,24.80
2023-05-12T14:02:00.698Z,24.60
2023-05-12T14:04:04.904Z,24.00
2023-05-12T14:06:07.787Z,24.20
2023-05-12T14:08:10.557Z,24.40
2023-05-12T14:10:13.374Z,24.00
2023-05-12T14:12:16.278Z,24.00
2023-05-12T14:14:19.055Z,24.50
2023-05-12T14:16:22.000Z,24.90
2023-05-12T14:18:26.122Z,24.90
2023-05-12T14:20:30.267Z,25.30
2023-05-12T14:22:33.245Z,25.40
2023-05-12T14:24:36.051Z,25.40
2023-05-12T14:26:38.837Z,25.30
2023-05-12T14:28:41.670Z,25.00
2023-05-12T14:30:45.238Z,25.30
2023-05-12T14:32:48.260Z,24.90
2023-05-12T14:34:51.099Z,25.20
2023-05-12T14:36:55.207Z,25.30
2023-05-12T14:38:57.997Z,25.30
2023-05-12T14:41:00.812Z,25.30
2023-05-12T14:43:03.649Z,25.80
2023-05-12T14:45:08.044Z,25.50
2023-05-12T14:47:10.906Z,25.20
2023-05-12T14:49:14.110Z,24.90
2023-05-12T14:51:16.867Z,24.30
2023-05-12T14:53:21.012Z,24.00
2023-05-12T14:55:24.506Z,23.70
2023-05-12T14:57:27.314Z,23.60
2023-05-12T14:59:30.389Z,23.70
2023-05-12T15:01:33.222Z,23.70
2023-05-12T15:03:36.128Z,23.70
2023-05-12T15:05:57.000Z,23.90
2023-05-12T15:08:01.676Z,24.10
2023-05-12T15:10:06.709Z,24.40
2023-05-12T15:12:10.258Z,24.70
2023-05-12T15:14:13.165Z,24.70
2023-05-12T15:16:15.997Z,24.40
2023-05-12T15:18:18.768Z,24.70
2023-05-12T15:20:21.679Z,24.70
2023-05-12T15:22:24.429Z,24.70
2023-05-12T15:24:27.515Z,24.30
2023-05-12T15:26:34.239Z,24.50
2023-05-12T15:28:38.467Z,24.50
2023-05-12T15:30:41.299Z,24.00
2023-05-12T15:32:44.376Z,23.40
2023-05-12T15:34:47.508Z,23.70
2023-05-12T15:36:50.824Z,23.90
2023-05-12T15:38:53.614Z,23.70
2023-05-12T15:40:56.381Z,23.90
2023-05-12T15:43:00.505Z,23.90
2023-05-12T15:45:04.057Z,23.80
2023-05-12T15:47:07.389Z,23.80
2023-05-12T15:49:10.320Z,23.70
2023-05-12T15:51:13.345Z,23.70
2023-05-12T15:53:16.154Z,23.60
2023-05-12T15:55:19.263Z,23.80
2023-05-12T15:57:22.340Z,23.70
2023-05-12T15:59:26.466Z,23.70
2023-05-12T16:01:29.237Z,23.70
2023-05-12T16:03:32.166Z,23.50
2023-05-12T16:05:37.790Z,23.60
2023-05-12T16:07:40.614Z,23.60
2023-05-12T16:09:43.370Z,23.60
2023-05-12T16:11:46.150Z,23.50
2023-05-12T16:13:48.922Z,23.40
2023-05-12T16:15:53.066Z,23.50
2023-05-12T16:17:56.125Z,23.50
2023-05-12T16:19:58.901Z,23.40
2023-05-12T16:22:01.753Z,23.40
2023-05-12T16:24:07.137Z,23.30
2023-05-12T16:26:11.239Z,23.00
2023-05-12T16:28:14.581Z,22.90
2023-05-12T16:30:19.877Z,23.10
2023-05-12T16:32:24.602Z,23.20
2023-05-12T16:34:27.678Z,23.30
2023-05-12T16:36:31.876Z,23.40
2023-05-12T16:38:34.958Z,23.30
2023-05-12T16:40:37.865Z,23.40
2023-05-12T16:42:40.672Z,23.40
2023-05-12T16:44:43.608Z,23.00
2023-05-12T16:46:46.536Z,23.10
2023-05-12T16:48:50.777Z,23.00
2023-05-12T16:51:01.378Z,22.80
2023-05-12T16:53:04.177Z,22.70
2023-05-12T16:55:08.052Z,22.60
2023-05-12T16:57:10.814Z,22.50
2023-05-12T16:59:13.621Z,22.40
2023-05-12T17:01:16.432Z,22.20
2023-05-12T17:03:19.589Z,22.20
2023-05-12T17:05:24.614Z,22.20
2023-05-12T17:07:27.463Z,22.20
2023-05-12T17:09:30.473Z,22.20
2023-05-12T17:11:33.347Z,22.20
2023-05-12T17:13:37.673Z,22.20
2023-05-12T17:15:40.630Z,22.20
2023-05-12T17:17:43.468Z,22.10
2023-05-12T17:19:46.687Z,22.10
2023-05-12T17:21:50.928Z,22.00
2023-05-12T17:23:53.870Z,22.00
2023-05-12T17:25:56.660Z,21.90
2023-05-12T17:27:59.437Z,21.90
2023-05-12T17:30:04.342Z,21.80
2023-05-12T17:32:08.005Z,21.70
2023-05-12T17:34:10.809Z,21.70
2023-05-12T17:36:13.794Z,21.70
2023-05-12T17:38:19.196Z,21.60
2023-05-12T17:40:22.191Z,21.50
2023-05-12T17:42:27.307Z,21.50
2023-05-12T17:44:30.633Z,21.40
2023-05-12T17:46:33.710Z,21.30
2023-05-12T17:48:38.294Z,21.30
2023-05-12T17:50:41.622Z,21.20
2023-05-12T17:52:44.554Z,21.10
2023-05-12T17:54:49.872Z,21.10
2023-05-12T17:56:52.905Z,21.00
2023-05-12T17:58:55.748Z,20.90
2023-05-12T18:00:58.669Z,20.80
2023-05-12T18:03:01.567Z,20.70
2023-05-12T18:05:05.508Z,20.70
2023-05-12T18:07:08.273Z,20.60
2023-05-12T18:09:11.664Z,20.60
2023-05-12T18:11:16.186Z,20.50
2023-05-12T18:13:19.464Z,20.50
2023-05-12T18:15:24.424Z,20.40
2023-05-12T18:17:27.665Z,20.30
2023-05-12T18:19:30.616Z,20.30
2023-05-12T18:21:33.714Z,20.20
2023-05-12T18:23:36.497Z,20.10
2023-05-12T18:25:39.385Z,20.00
2023-05-12T18:27:43.571Z,20.00
2023-05-12T18:29:46.468Z,19.80
2023-05-12T18:31:49.301Z,19.80
2023-05-12T18:33:52.109Z,19.70
2023-05-12T18:35:55.101Z,19.60
2023-05-12T18:37:58.066Z,19.60
2023-05-12T18:40:00.880Z,19.50
2023-05-12T18:42:03.671Z,19.40
2023-05-12T18:44:08.840Z,19.30
2023-05-12T18:46:11.752Z,19.20
2023-05-12T18:48:14.696Z,19.10
2023-05-12T18:50:17.666Z,19.10
2023-05-12T18:52:21.294Z,19.00
2023-05-12T18:54:24.123Z,18.90
2023-05-12T18:56:27.305Z,18.90
2023-05-12T18:58:30.076Z,18.80
2023-05-12T19:00:35.490Z,18.80
2023-05-12T19:02:38.392Z,18.60
2023-05-12T19:04:41.290Z,18.50
2023-05-12T19:06:44.171Z,18.40
2023-05-12T19:08:46.947Z,18.30
2023-05-12T19:10:49.748Z,18.20
2023-05-12T19:12:52.528Z,18.10
2023-05-12T19:14:55.309Z,18.00
2023-05-12T19:16:59.528Z,18.00
2023-05-12T19:19:02.359Z,17.90
2023-05-12T19:21:05.226Z,17.80
2023-05-12T19:23:08.003Z,17.70
2023-05-12T19:25:11.673Z,17.60
2023-05-12T19:27:14.577Z,17.50
2023-05-12T19:29:17.436Z,17.50
2023-05-12T19:31:20.335Z,17.30
2023-05-12T19:33:26.704Z,17.30
2023-05-12T19:35:29.457Z,17.30
2023-05-12T19:37:33.363Z,17.20
2023-05-12T19:39:36.157Z,17.10
2023-05-12T19:41:39.341Z,17.00
2023-05-12T19:43:42.276Z,17.00
2023-05-12T19:45:45.408Z,16.90
2023-05-12T19:47:48.292Z,16.90
2023-05-12T19:49:53.785Z,16.80
2023-05-12T19:51:56.610Z,16.70
2023-05-12T19:53:59.444Z,16.80
2023-05-12T19:56:02.243Z,16.80
2023-05-12T19:58:05.077Z,16.80
2023-05-12T20:00:08.992Z,16.70
2023-05-12T20:02:13.459Z,16.60
2023-05-12T20:04:16.307Z,16.50
2023-05-12T20:06:20.431Z,16.40
2023-05-12T20:08:23.621Z,16.30
2023-05-12T20:10:26.409Z,16.40
2023-05-12T20:12:29.176Z,16.30
2023-05-12T20:14:32.152Z,16.30
2023-05-12T20:16:34.951Z,16.20
2023-05-12T20:18:37.840Z,16.20
2023-05-12T20:20:40.656Z,16.20
2023-05-12T20:22:44.776Z,16.10
2023-05-12T20:24:47.585Z,16.10
2023-05-12T20:26:50.352Z,16.00
2023-05-12T20:28:53.151Z,16.00
2023-05-12T20:30:56.437Z,15.90
2023-05-12T20:32:59.306Z,15.90
2023-05-12T20:35:02.150Z,15.90
2023-05-12T20:37:05.038Z,15.90
2023-05-12T20:39:10.039Z,15.90
2023-05-12T20:41:13.659Z,15.80
2023-05-12T20:43:16.491Z,15.70
2023-05-12T20:45:19.743Z,15.70
2023-05-12T20:47:22.955Z,15.70
2023-05-12T20:49:25.929Z,15.60
2023-05-12T20:51:28.708Z,15.50
2023-05-12T20:53:31.651Z,15.40
2023-05-12T20:55:35.865Z,15.30
2023-05-12T20:57:40.101Z,15.30
2023-05-12T20:59:43.140Z,15.40
2023-05-12T21:01:45.965Z,15.40
2023-05-12T21:03:48.934Z,15.30
2023-05-12T21:05:51.731Z,15.30
2023-05-12T21:07:54.519Z,15.30
2023-05-12T21:09:59.856Z,15.30
2023-05-12T21:12:04.335Z,15.30
2023-05-12T21:14:07.112Z,15.30
2023-05-12T21:16:09.969Z,15.30
2023-05-12T21:18:13.252Z,15.20
2023-05-12T21:20:16.205Z,15.10
2023-05-12T21:22:21.820Z,15.20
2023-05-12T21:24:24.571Z,15.20
2023-05-12T21:26:27.797Z,15.20
2023-05-12T21:28:31.913Z,15.10
2023-05-12T21:30:36.200Z,15.10
2023-05-12T21:32:39.452Z,15.20
2023-05-12T21:34:42.371Z,15.10
2023-05-12T21:36:45.146Z,15.20
2023-05-12T21:38:47.943Z,15.10
2023-05-12T21:40:51.852Z,15.10
2023-05-12T21:42:54.634Z,15.10
2023-05-12T21:44:58.779Z,15.10
2023-05-12T21:47:03.405Z,15.10
2023-05-12T21:49:06.181Z,15.10
2023-05-12T21:51:09.110Z,15.10
2023-05-12T21:53:11.888Z,15.10
2023-05-12T21:55:14.945Z,15.00
2023-05-12T21:57:17.709Z,15.00
2023-05-12T21:59:20.627Z,15.00
2023-05-12T22:01:24.794Z,14.90
2023-05-12T22:03:27.614Z,14.90
2023-05-12T22:05:30.586Z,14.90
2023-05-12T22:07:33.389Z,14.80
2023-05-12T22:09:36.636Z,14.70
2023-05-12T22:11:39.673Z,14.60
2023-05-12T22:13:42.543Z,14.50
2023-05-12T22:15:45.332Z,14.40
2023-05-12T22:17:49.642Z,14.30
2023-05-12T22:19:52.457Z,14.20
2023-05-12T22:21:55.222Z,13.90
2023-05-12T22:23:58.050Z,13.70
2023-05-12T22:26:01.163Z,13.50
2023-05-12T22:28:05.879Z,13.40
2023-05-12T22:30:10.708Z,13.30
2023-05-12T22:32:13.517Z,13.20
2023-05-12T22:34:17.599Z,13.20
2023-05-12T22:36:20.373Z,13.10
2023-05-12T22:38:23.116Z,13.20
2023-05-12T22:40:27.099Z,13.20
2023-05-12T22:42:29.873Z,13.20
2023-05-12T22:44:32.618Z,13.30
2023-05-12T22:46:35.388Z,13.30
2023-05-12T22:48:39.525Z,13.30
2023-05-12T22:50:43.878Z,13.20
2023-05-12T22:52:46.969Z,13.20
2023-05-12T22:54:52.791Z,13.20
2023-05-12T22:56:55.917Z,13.20
2023-05-12T22:58:58.699Z,13.10
2023-05-12T23:01:01.890Z,13.10
2023-05-12T23:03:04.849Z,13.10
2023-05-12T23:05:08.409Z,13.00
2023-05-12T23:07:12.495Z,12.90
2023-05-12T23:09:15.852Z,12.80
2023-05-12T23:11:18.602Z,12.70
2023-05-12T23:13:21.528Z,12.70
2023-05-12T23:15:24.500Z,12.70
2023-05-12T23:17:27.319Z,12.70
2023-05-12T23:19:30.101Z,12.60
2023-05-12T23:21:32.830Z,12.50
2023-05-12T23:23:36.928Z,12.40
2023-05-12T23:25:39.697Z,12.40
2023-05-12T23:27:42.490Z,12.40
2023-05-12T23:29:46.105Z,12.40
2023-05-12T23:31:48.930Z,12.30
2023-05-12T23:33:51.822Z,12.40
2023-05-12T23:35:54.673Z,12.40
2023-05-12T23:37:57.481Z,12.50
2023-05-12T23:40:01.860Z,12.50
2023-05-12T23:42:04.715Z,12.40
2023-05-12T23:44:07.469Z,12.40
2023-05-12T23:46:10.557Z,12.40
2023-05-12T23:48:13.459Z,12.40
2023-05-12T23:50:16.323Z,12.40
2023-05-12T23:52:19.113Z,12.30
2023-05-12T23:54:21.897Z,12.20
2023-05-12T23:56:26.042Z,12.20
2023-05-12T23:58:28.790Z,12.20
